Terminal Aerodrome Forecast
Issued by NWS

Home | Current Version | Previous Version | Text Only | Print | Product List | Glossary On
Versions: 1 2 3 4 5 6 7 8 9 10 11 12
000
FTUS43 KMQT 031130
TAFCMX
TAF
KCMX 031130Z 0312/0412 21007KT P6SM BKN200
     FM031600 23010KT P6SM SCT050 BKN120
     FM032000 24008KT 6SM -SHRA BKN060
     FM032300 29008KT P6SM BKN050
     FM040300 29013KT P6SM SCT080=

USA.gov is the U.S. government's official web portal to all federal, state and local government web resources and services.